Time;durP1;ratioP1;P1;durP2;ratioP2;P2;SDS_P1;SDS_P2;PMS_P1;PMS_P2;Temp;Humidity;BMP_temperature;BMP_pressure;BME280_temperature;BME280_humidity;BME280_pressure;Samples;Min_cycle;Max_cycle;Signal;HPM_P1;HPM_P2
2022/03/18 00:00:33;;;;;;;11.10;5.28;;;5.10;99.90;;;4.88;88.76;103166.03;5137096;28;20050;-74
2022/03/18 00:03:06;;;;;;;17.67;5.30;;;5.10;99.90;;;4.86;88.97;103172.75;5137220;28;20046;-75
2022/03/18 00:05:38;;;;;;;14.75;5.28;;;5.10;99.90;;;4.83;88.76;103169.88;5145270;28;20054;-74
2022/03/18 00:08:11;;;;;;;14.77;6.00;;;5.00;99.90;;;4.80;88.81;103173.06;5137479;28;20055;-73
2022/03/18 00:10:44;;;;;;;16.52;6.22;;;5.00;99.90;;;4.74;88.77;103179.31;5144848;28;20051;-74
2022/03/18 00:13:17;;;;;;;14.40;5.97;;;5.00;99.90;;;4.74;88.53;103189.66;5145571;28;20047;-74
2022/03/18 00:15:49;;;;;;;14.98;6.07;;;5.00;99.90;;;4.70;88.74;103188.47;5144576;28;20055;-73
2022/03/18 00:18:21;;;;;;;15.40;5.50;;;4.90;99.90;;;4.69;88.87;103186.63;5144578;28;20058;-73
2022/03/18 00:20:53;;;;;;;16.55;6.07;;;4.90;99.90;;;4.67;88.97;103182.06;5145155;28;20055;-74
2022/03/18 00:23:25;;;;;;;14.55;5.97;;;4.90;99.90;;;4.66;88.74;103180.25;5144975;28;20046;-73
2022/03/18 00:25:57;;;;;;;17.23;6.10;;;4.90;99.90;;;4.62;89.07;103187.69;5144559;28;20051;-73
2022/03/18 00:28:30;;;;;;;18.70;6.30;;;4.90;99.90;;;4.61;88.97;103184.97;5143710;28;20054;-73
2022/03/18 00:31:03;;;;;;;14.60;6.18;;;4.90;99.90;;;4.54;88.63;103186.06;5144923;28;20415;-74
2022/03/18 00:33:35;;;;;;;13.85;6.60;;;4.80;99.90;;;4.52;89.07;103185.00;5144886;28;20105;-74
2022/03/18 00:36:07;;;;;;;16.55;6.05;;;4.70;99.90;;;4.49;88.61;103192.44;5144798;28;20073;-74
2022/03/18 00:38:40;;;;;;;13.48;5.45;;;4.70;99.90;;;4.45;88.75;103190.34;5144531;28;20240;-74
2022/03/18 00:41:12;;;;;;;16.30;5.65;;;4.70;99.90;;;4.41;88.76;103195.97;5144579;28;20736;-72
2022/03/18 00:43:45;;;;;;;16.33;5.70;;;4.70;99.90;;;4.38;88.92;103198.25;5136676;28;20047;-73
2022/03/18 00:46:20;;;;;;;13.82;5.90;;;4.60;99.90;;;4.38;89.02;103208.59;5138761;28;20047;-73
2022/03/18 00:52:03;;;;;;;16.58;5.85;;;4.60;99.90;;;4.34;89.36;103201.28;5128013;28;20077;-74
2022/03/18 00:54:39;;;;;;;22.13;7.70;;;4.60;99.90;;;4.33;89.05;103194.31;5124835;28;20106;-75
2022/03/18 00:57:12;;;;;;;14.43;6.10;;;4.60;99.90;;;4.32;89.39;103192.50;5138251;28;20055;-73
2022/03/18 00:59:46;;;;;;;13.13;5.55;;;4.50;99.90;;;4.30;89.62;103196.56;5144280;28;20072;-74
2022/03/18 01:02:18;;;;;;;15.23;5.50;;;4.50;99.90;;;4.29;89.37;103202.50;5144732;28;20060;-74
2022/03/18 01:04:50;;;;;;;16.35;6.28;;;4.50;99.90;;;4.23;89.36;103191.56;5144477;28;20525;-73
2022/03/18 01:07:22;;;;;;;15.68;5.65;;;4.50;99.90;;;4.16;89.23;103199.47;5143965;28;20047;-73
2022/03/18 01:09:54;;;;;;;21.05;5.95;;;4.50;99.90;;;4.14;89.27;103185.50;5144168;28;20051;-73
2022/03/18 01:12:27;;;;;;;14.77;5.15;;;4.50;99.90;;;4.09;89.08;103195.38;5140281;28;20505;-74
2022/03/18 01:15:00;;;;;;;15.05;5.47;;;4.40;99.90;;;4.08;89.07;103191.88;5144387;28;20059;-73
2022/03/18 01:17:33;;;;;;;14.50;5.47;;;4.40;99.90;;;4.08;88.93;103189.31;5143894;28;20058;-73
2022/03/18 01:20:07;;;;;;;15.80;5.78;;;4.40;99.90;;;4.07;88.83;103191.75;5143841;28;20118;-73
2022/03/18 01:22:39;;;;;;;17.02;5.35;;;4.40;99.90;;;4.06;88.78;103192.50;5126114;28;20507;-74
2022/03/18 01:25:11;;;;;;;13.98;5.65;;;4.30;99.90;;;4.04;88.51;103194.94;5132225;28;20427;-73
2022/03/18 01:27:43;;;;;;;15.30;6.32;;;4.30;99.90;;;4.03;88.47;103202.50;5141169;28;20057;-73
2022/03/18 01:30:16;;;;;;;12.65;5.63;;;4.30;99.90;;;3.99;88.25;103200.41;5143989;28;20047;-73
2022/03/18 01:32:49;;;;;;;15.32;5.38;;;4.30;99.90;;;3.95;88.26;103187.94;5143991;28;20511;-74
2022/03/18 01:35:21;;;;;;;13.25;5.72;;;4.20;99.90;;;3.94;88.40;103191.28;5143813;28;20055;-73
2022/03/18 01:37:53;;;;;;;15.00;6.15;;;4.20;99.90;;;3.90;88.25;103202.97;5129225;28;20405;-74
2022/03/18 01:40:25;;;;;;;15.80;6.30;;;4.20;99.90;;;3.88;88.70;103194.16;5128149;29;20066;-73
2022/03/18 01:42:57;;;;;;;13.38;5.97;;;4.20;99.90;;;3.86;88.61;103203.44;5129845;28;20055;-73
2022/03/18 01:45:30;;;;;;;17.02;5.78;;;4.10;99.90;;;3.82;88.71;103209.03;5147655;28;20055;-74
2022/03/18 01:48:03;;;;;;;17.90;6.65;;;4.10;99.90;;;3.81;88.84;103209.78;5147571;28;20053;-74
2022/03/18 01:50:35;;;;;;;14.57;5.82;;;4.10;99.90;;;3.79;88.69;103207.06;5141501;28;20049;-73
2022/03/18 01:53:08;;;;;;;15.88;5.53;;;4.10;99.90;;;3.77;89.07;103217.97;5127741;28;20055;-73
2022/03/18 01:55:40;;;;;;;15.40;6.00;;;4.10;99.90;;;3.74;89.07;103217.69;5127937;28;20440;-73
2022/03/18 01:58:12;;;;;;;16.88;5.57;;;4.00;99.90;;;3.70;88.86;103215.53;5127690;29;20051;-74
2022/03/18 02:00:45;;;;;;;14.93;5.47;;;4.00;99.90;;;3.65;88.79;103221.91;5127299;29;20476;-74
2022/03/18 02:03:17;;;;;;;17.50;5.57;;;3.90;99.90;;;3.61;88.80;103224.94;5134007;28;20053;-74
2022/03/18 02:05:50;;;;;;;15.00;5.50;;;3.90;99.90;;;3.56;88.58;103218.41;5136114;28;20058;-74
2022/03/18 02:08:23;;;;;;;19.92;5.95;;;3.80;99.90;;;3.54;88.93;103223.41;5147851;28;20053;-74
2022/03/18 02:10:55;;;;;;;15.77;5.68;;;3.80;99.90;;;3.51;89.30;103228.22;5130268;28;20556;-73
2022/03/18 02:13:27;;;;;;;15.35;5.43;;;3.80;99.90;;;3.49;89.11;103233.25;5127463;29;20142;-74
2022/03/18 02:16:04;;;;;;;15.88;5.30;;;3.80;99.90;;;3.46;89.37;103235.53;5127224;28;20081;-73
2022/03/18 02:18:36;;;;;;;15.57;5.88;;;3.80;99.90;;;3.44;89.42;103241.25;5127382;29;20507;-74
2022/03/18 02:21:09;;;;;;;14.35;5.93;;;3.80;99.90;;;3.42;89.14;103242.78;5127104;29;20051;-74
2022/03/18 02:23:43;;;;;;;13.93;5.93;;;3.70;99.90;;;3.40;89.34;103237.47;5130696;28;20050;-73
2022/03/18 02:26:15;;;;;;;14.50;5.82;;;3.70;99.90;;;3.35;88.92;103243.81;5131226;28;20053;-73
2022/03/18 02:28:47;;;;;;;14.35;5.97;;;3.70;99.90;;;3.34;89.30;103244.59;5126980;29;20051;-73
2022/03/18 02:31:20;;;;;;;12.98;5.28;;;3.60;99.90;;;3.30;89.28;103242.44;5141221;28;20047;-73
2022/03/18 02:33:52;;;;;;;13.63;4.85;;;3.60;99.90;;;3.30;89.50;103247.59;5147121;28;20400;-74
2022/03/18 02:36:24;;;;;;;17.63;6.43;;;3.60;99.90;;;3.30;89.41;103236.38;5147113;28;20061;-73
2022/03/18 02:38:58;;;;;;;16.30;5.95;;;3.60;99.90;;;3.28;89.29;103246.53;5147029;28;20051;-73
2022/03/18 02:41:30;;;;;;;12.68;5.97;;;3.60;99.90;;;3.26;89.65;103248.06;5147238;28;20047;-73
2022/03/18 02:44:02;;;;;;;17.33;6.28;;;3.60;99.90;;;3.26;89.96;103259.28;5146466;28;20054;-74
2022/03/18 02:46:34;;;;;;;14.98;6.68;;;3.60;99.90;;;3.25;89.77;103254.84;5146818;28;20051;-73
2022/03/18 02:49:07;;;;;;;15.00;6.65;;;3.50;99.90;;;3.22;89.56;103263.94;5146580;28;20051;-73
2022/03/18 02:51:39;;;;;;;17.88;6.40;;;3.50;99.90;;;3.18;89.48;103267.84;5130091;28;20493;-74
2022/03/18 02:54:13;;;;;;;17.17;5.82;;;3.50;99.90;;;3.15;89.31;103266.66;5126647;28;20057;-74
2022/03/18 02:56:45;;;;;;;15.75;6.10;;;3.50;99.90;;;3.14;89.61;103265.72;5127220;28;20459;-73
2022/03/18 02:59:17;;;;;;;15.48;6.57;;;3.50;99.90;;;3.11;89.59;103262.81;5126895;28;20055;-74
2022/03/18 03:01:49;;;;;;;15.90;6.65;;;3.50;99.90;;;3.11;89.91;103269.66;5126967;28;20051;-73
2022/03/18 03:04:21;;;;;;;12.02;5.53;;;3.40;99.90;;;3.08;89.76;103277.97;5127134;28;20059;-73
2022/03/18 03:09:44;;;;;;;15.25;6.38;;;3.40;99.90;;;3.03;89.81;103288.56;5127098;29;20551;-73
2022/03/18 03:12:16;;;;;;;13.63;5.75;;;3.30;99.90;;;2.99;89.68;103290.78;5126811;28;20055;-73
2022/03/18 03:14:48;;;;;;;15.15;5.80;;;3.30;99.90;;;2.98;89.67;103291.56;5126622;28;20057;-73
2022/03/18 03:17:20;;;;;;;15.10;5.78;;;3.30;99.90;;;2.95;89.87;103291.25;5126529;28;20067;-73
2022/03/18 03:19:53;;;;;;;15.32;6.43;;;3.30;99.90;;;2.94;89.71;103296.25;5126925;28;20484;-73
2022/03/18 03:22:25;;;;;;;16.05;6.47;;;3.30;99.90;;;2.90;89.63;103295.00;5126641;28;20058;-73
2022/03/18 03:24:58;;;;;;;15.73;6.82;;;3.20;99.90;;;2.88;89.57;103301.66;5126585;28;20482;-74
2022/03/18 03:27:31;;;;;;;16.92;7.45;;;3.20;99.90;;;2.86;89.64;103303.16;5126505;28;20051;-73
2022/03/18 03:30:06;;;;;;;14.88;6.70;;;3.20;99.90;;;2.86;89.98;103315.13;5126243;28;20492;-73
2022/03/18 03:32:38;;;;;;;15.80;6.57;;;3.20;99.90;;;2.85;90.03;103321.03;5126610;28;20724;-73
2022/03/18 03:35:10;;;;;;;17.17;7.32;;;3.20;99.90;;;2.82;89.79;103319.06;5126456;28;20420;-74
2022/03/18 03:37:43;;;;;;;16.23;6.35;;;3.20;99.90;;;2.80;90.04;103317.94;5126153;28;20063;-74
2022/03/18 03:40:17;;;;;;;17.45;7.10;;;3.10;99.90;;;2.77;90.15;103322.81;5126538;28;20043;-75
2022/03/18 03:42:49;;;;;;;16.52;6.82;;;3.10;99.90;;;2.78;89.97;103323.72;5125989;28;20058;-74
2022/03/18 03:45:21;;;;;;;14.43;7.20;;;3.10;99.90;;;2.77;90.47;103325.38;5126048;28;21646;-73
2022/03/18 03:47:53;;;;;;;17.50;6.90;;;3.10;99.90;;;2.77;90.04;103322.81;5126262;28;20162;-73
2022/03/18 03:50:25;;;;;;;14.82;6.78;;;3.10;99.90;;;2.78;90.33;103328.88;5126288;28;20047;-73
2022/03/18 03:52:57;;;;;;;16.98;7.10;;;3.10;99.90;;;2.75;90.33;103329.47;5126068;28;20070;-74
2022/03/18 03:55:31;;;;;;;20.15;7.50;;;3.10;99.90;;;2.72;89.54;103339.41;5126226;28;20057;-73
2022/03/18 03:58:03;;;;;;;13.25;6.10;;;3.10;99.90;;;2.66;89.90;103346.50;5125903;28;20497;-73
2022/03/18 04:00:37;;;;;;;16.05;6.93;;;3.00;99.90;;;2.63;89.57;103343.59;5125933;28;20404;-74
2022/03/18 04:03:09;;;;;;;18.65;6.20;;;3.00;99.90;;;2.62;90.34;103352.09;5124773;28;20055;-74
2022/03/18 04:05:41;;;;;;;19.73;7.13;;;2.90;99.90;;;2.63;89.96;103348.75;5126171;28;20054;-74
2022/03/18 04:08:12;;;;;;;19.48;7.32;;;3.00;99.90;;;2.64;90.00;103345.44;5125587;28;20055;-73
2022/03/18 04:10:46;;;;;;;13.45;6.28;;;2.90;99.90;;;2.64;90.13;103355.72;5125392;28;20051;-74
2022/03/18 04:13:18;;;;;;;16.25;6.45;;;2.90;99.90;;;2.64;89.95;103355.72;5125393;28;20051;-73
2022/03/18 04:15:50;;;;;;;20.52;7.05;;;2.90;99.90;;;2.61;89.33;103355.41;5125383;28;20057;-74
2022/03/18 04:18:22;;;;;;;17.15;7.03;;;2.90;99.90;;;2.55;89.64;103352.19;5125948;28;20055;-73
2022/03/18 04:20:54;;;;;;;18.40;6.65;;;2.90;99.90;;;2.52;89.60;103351.84;5125754;28;20043;-73
2022/03/18 04:23:26;;;;;;;20.58;7.57;;;2.90;99.90;;;2.50;89.76;103361.06;5125686;28;20053;-73
2022/03/18 04:25:59;;;;;;;15.77;6.55;;;2.90;99.90;;;2.52;90.04;103369.84;5125298;28;20102;-73
2022/03/18 04:28:31;;;;;;;17.38;7.13;;;2.90;99.90;;;2.50;89.44;103373.94;5125481;28;20053;-73
2022/03/18 04:31:03;;;;;;;13.63;6.22;;;2.80;99.90;;;2.45;89.60;103371.75;5125980;28;20055;-74
2022/03/18 04:33:35;;;;;;;14.43;6.45;;;2.80;99.90;;;2.41;89.33;103379.94;5125466;28;20502;-73
2022/03/18 04:36:08;;;;;;;16.55;6.90;;;2.80;99.90;;;2.38;89.79;103377.00;5125038;28;20055;-73
2022/03/18 04:38:40;;;;;;;18.10;8.10;;;2.80;99.90;;;2.38;90.14;103379.59;5125186;28;20047;-73
2022/03/18 04:41:13;;;;;;;21.55;7.53;;;2.80;99.90;;;2.39;90.01;103373.69;5125548;28;20515;-74
2022/03/18 04:43:45;;;;;;;23.50;8.15;;;2.80;99.90;;;2.38;90.17;103379.59;5125444;28;20073;-73
2022/03/18 04:46:17;;;;;;;20.23;7.28;;;2.80;99.90;;;2.39;90.33;103376.25;5125237;28;20047;-74
2022/03/18 04:48:49;;;;;;;17.10;7.22;;;2.80;99.90;;;2.37;89.84;103370.03;5125113;28;20472;-73
2022/03/18 04:51:21;;;;;;;20.05;7.25;;;2.80;99.90;;;2.41;90.00;103372.22;5125234;28;20055;-73
2022/03/18 04:53:54;;;;;;;17.02;7.15;;;2.80;99.90;;;2.39;90.11;103378.81;5125327;28;20061;-73
2022/03/18 04:59:18;;;;;;;17.00;6.55;;;2.80;99.90;;;2.38;90.08;103383.81;5124915;29;20062;-73
2022/03/18 05:01:50;;;;;;;19.77;7.45;;;2.80;99.90;;;2.36;89.94;103383.66;5125314;28;20494;-75
2022/03/18 05:04:22;;;;;;;14.80;7.05;;;2.70;99.90;;;2.35;89.79;103391.22;5125107;28;20404;-74
2022/03/18 05:06:54;;;;;;;27.92;8.45;;;2.70;99.90;;;2.31;89.41;103383.91;5124844;28;20416;-74
2022/03/18 05:09:26;;;;;;;18.95;6.93;;;2.70;99.90;;;2.29;89.79;103401.75;5125077;28;20048;-73
2022/03/18 05:11:59;;;;;;;17.83;7.60;;;2.70;99.90;;;2.25;89.77;103397.00;5124515;28;20051;-73
2022/03/18 05:14:33;;;;;;;21.30;7.88;;;2.60;99.90;;;2.21;89.78;103399.97;5124534;28;20071;-74
2022/03/18 05:17:07;;;;;;;13.55;6.47;;;2.60;99.90;;;2.18;89.93;103404.81;5124513;28;20106;-74
2022/03/18 05:19:40;;;;;;;13.07;5.93;;;2.60;99.90;;;2.12;89.38;103417.91;5124592;28;20050;-74
2022/03/18 05:22:12;;;;;;;19.25;8.07;;;2.50;99.90;;;2.11;89.86;103425.47;5124249;28;20106;-74
2022/03/18 05:24:44;;;;;;;19.50;7.82;;;2.50;99.90;;;2.08;90.07;103427.69;5140252;28;20407;-73
2022/03/18 05:27:18;;;;;;;17.08;6.72;;;2.50;99.90;;;2.04;89.99;103438.41;5123752;28;20083;-74
2022/03/18 05:29:51;;;;;;;14.73;6.28;;;2.40;99.90;;;2.00;89.86;103436.22;5123984;29;20094;-73
2022/03/18 05:32:23;;;;;;;16.40;6.65;;;2.40;99.90;;;1.97;90.02;103429.09;5124260;28;20058;-73
2022/03/18 05:34:55;;;;;;;16.40;6.90;;;2.40;99.90;;;1.95;89.62;103439.94;5124112;29;20059;-73
2022/03/18 05:37:27;;;;;;;18.80;6.97;;;2.30;99.90;;;1.93;89.62;103442.34;5124052;28;20066;-73
2022/03/18 05:39:59;;;;;;;17.85;7.10;;;2.30;99.90;;;1.92;89.86;103442.19;5123959;29;20047;-74
2022/03/18 05:42:32;;;;;;;21.60;7.95;;;2.30;99.90;;;1.89;90.10;103428.25;5124089;29;20057;-73
2022/03/18 05:45:05;;;;;;;19.05;8.73;;;2.30;99.90;;;1.88;90.60;103435.78;5123740;28;20051;-74
2022/03/18 05:47:37;;;;;;;17.77;7.28;;;2.30;99.90;;;1.89;90.64;103448.84;5124135;28;20055;-75
2022/03/18 05:50:15;;;;;;;17.35;7.75;;;2.30;99.90;;;1.94;90.71;103457.03;5123766;29;20047;-73
2022/03/18 05:52:47;;;;;;;16.00;7.28;;;2.30;99.90;;;1.96;89.91;103462.38;5123743;29;20094;-74
2022/03/18 05:55:19;;;;;;;21.73;8.02;;;2.30;99.90;;;1.98;90.30;103460.88;5123816;28;20062;-74
2022/03/18 05:57:53;;;;;;;19.70;7.72;;;2.30;99.90;;;1.98;90.01;103469.50;5133384;28;20150;-74
2022/03/18 06:00:25;;;;;;;17.75;7.55;;;2.30;99.90;;;2.00;90.11;103467.09;5143765;28;20061;-74
2022/03/18 06:02:58;;;;;;;24.98;8.88;;;2.40;99.90;;;2.02;89.72;103463.03;5143675;28;20051;-73
2022/03/18 06:05:30;;;;;;;24.45;8.77;;;2.30;99.90;;;2.03;89.85;103462.31;5143591;28;20059;-73
2022/03/18 06:13:39;;;;;;;20.08;7.80;;;2.50;99.90;;;2.21;89.58;103469.47;5143113;28;20054;-74
2022/03/18 06:16:11;;;;;;;18.13;7.57;;;2.50;99.90;;;2.27;89.35;103480.47;5143502;28;20416;-75
2022/03/18 06:18:43;;;;;;;20.27;8.35;;;2.60;99.90;;;2.32;89.04;103489.59;5143823;28;20049;-73
2022/03/18 06:21:16;;;;;;;17.83;7.40;;;2.60;99.90;;;2.35;88.66;103500.25;5143610;28;20047;-73
2022/03/18 06:23:48;;;;;;;17.33;7.50;;;2.70;99.90;;;2.41;88.59;103505.16;5143517;28;20477;-74
2022/03/18 06:26:20;;;;;;;16.42;6.78;;;2.70;99.90;;;2.51;88.08;103502.84;5146052;28;20489;-73
2022/03/18 06:28:53;;;;;;;17.95;7.75;;;2.70;99.90;;;2.71;88.27;103503.38;5147459;28;20047;-74
2022/03/18 06:31:25;;;;;;;20.83;7.78;;;2.90;99.90;;;3.38;88.45;103517.47;5147110;28;20057;-73
2022/03/18 06:33:57;;;;;;;18.10;7.25;;;3.20;99.90;;;4.36;87.11;103525.19;5146883;28;20061;-74
2022/03/18 06:36:30;;;;;;;16.33;6.75;;;3.80;99.90;;;5.57;83.84;103525.38;5146788;28;20050;-73
2022/03/18 06:39:02;;;;;;;21.20;7.57;;;4.60;99.90;;;6.84;78.01;103528.88;5146597;28;20051;-74
2022/03/18 06:41:35;;;;;;;19.60;8.27;;;5.50;99.90;;;8.11;73.25;103538.75;5147089;28;20050;-74
2022/03/18 06:44:09;;;;;;;16.65;6.78;;;6.50;99.90;;;9.46;67.18;103541.75;5146956;28;20491;-73
2022/03/18 06:46:42;;;;;;;16.90;6.95;;;7.70;99.90;;;10.67;61.11;103532.34;5146681;28;20051;-74
2022/03/18 06:49:14;;;;;;;12.93;7.15;;;8.70;99.90;;;11.55;56.15;103543.41;5146524;28;20061;-73
2022/03/18 06:51:46;;;;;;;13.13;6.60;;;9.60;99.70;;;12.13;53.60;103540.78;5146558;28;20058;-73
2022/03/18 06:54:18;;;;;;;15.50;7.03;;;10.30;96.80;;;12.82;51.23;103540.38;5146443;28;20058;-73
2022/03/18 06:56:50;;;;;;;13.00;5.93;;;11.00;93.80;;;13.66;48.50;103558.31;5146846;28;20053;-73
2022/03/18 06:59:23;;;;;;;13.35;6.82;;;11.70;91.00;;;14.13;46.29;103548.28;5146396;28;20492;-72
2022/03/18 07:01:55;;;;;;;14.43;7.28;;;12.30;85.30;;;14.59;44.80;103562.59;5146408;28;20059;-72
2022/03/18 07:04:27;;;;;;;14.55;6.97;;;12.70;81.00;;;14.91;43.25;103553.16;5146374;28;20046;-72
2022/03/18 07:06:59;;;;;;;13.50;6.53;;;13.10;76.90;;;15.67;41.82;103559.47;5145892;28;20165;-72
2022/03/18 07:09:31;;;;;;;15.13;7.00;;;13.60;74.20;;;16.65;39.98;103554.41;5145625;28;20047;-72
2022/03/18 07:12:03;;;;;;;14.13;6.72;;;14.40;71.30;;;17.55;38.22;103559.09;5126863;28;20047;-73
2022/03/18 07:14:36;;;;;;;12.13;6.40;;;15.10;68.10;;;18.25;36.87;103553.72;5126016;29;20504;-72
2022/03/18 07:19:58;;;;;;;12.82;6.82;;;16.20;64.10;;;19.44;34.56;103549.38;5126185;29;20058;-72
2022/03/18 07:22:30;;;;;;;12.98;6.82;;;16.90;61.30;;;20.11;33.21;103551.22;5126169;29;20063;-71
2022/03/18 07:25:02;;;;;;;17.25;7.35;;;17.50;59.10;;;20.62;32.57;103555.84;5126122;28;20051;-72
2022/03/18 07:27:34;;;;;;;15.55;7.18;;;18.00;57.80;;;21.08;31.71;103553.09;5125531;29;20057;-72
2022/03/18 07:30:09;;;;;;;12.63;6.70;;;18.50;56.40;;;21.53;30.85;103553.78;5125814;29;20057;-72
2022/03/18 07:32:41;;;;;;;15.95;7.82;;;19.00;55.00;;;21.86;30.59;103561.94;5126103;28;20051;-71
2022/03/18 07:35:14;;;;;;;13.88;7.20;;;19.40;54.60;;;22.16;30.26;103558.47;5125833;28;20047;-72
2022/03/18 07:37:47;;;;;;;12.38;7.30;;;19.70;53.60;;;22.40;29.59;103564.50;5124996;28;20055;-71
2022/03/18 07:40:20;;;;;;;12.88;7.10;;;19.90;52.80;;;22.55;29.52;103573.78;5125415;29;20047;-72
2022/03/18 07:42:54;;;;;;;14.93;7.25;;;20.00;52.50;;;22.68;29.33;103573.28;5125534;29;20051;-72
2022/03/18 07:45:30;;;;;;;15.38;7.45;;;20.20;52.20;;;22.84;29.01;103571.97;5125402;28;20050;-71
2022/03/18 07:48:08;;;;;;;15.07;7.45;;;20.40;51.90;;;22.99;29.04;103583.97;5125217;29;20061;-72
2022/03/18 07:50:40;;;;;;;17.13;8.05;;;20.50;51.50;;;23.17;28.60;103572.03;5126000;29;20058;-73
2022/03/18 07:53:12;;;;;;;14.35;7.50;;;20.70;51.30;;;23.24;28.71;103569.56;5125528;29;20062;-72
2022/03/18 07:55:44;;;;;;;12.48;7.80;;;20.80;51.00;;;23.34;28.36;103562.69;5125097;28;20059;-73
2022/03/18 07:58:16;;;;;;;17.23;7.50;;;20.80;51.10;;;23.42;28.19;103566.47;5124880;28;20061;-72
2022/03/18 08:00:50;;;;;;;14.98;7.47;;;20.80;50.60;;;23.32;28.04;103556.44;5125295;29;20054;-73
2022/03/18 08:03:22;;;;;;;15.07;7.22;;;20.70;50.60;;;23.35;28.44;103560.97;5125514;28;20055;-73
2022/03/18 08:05:54;;;;;;;11.45;5.93;;;20.70;50.70;;;23.44;30.72;103562.06;5124854;28;20057;-68
2022/03/18 08:08:26;;;;;;;12.00;6.45;;;20.80;54.10;;;23.78;29.47;103565.59;5124723;29;20443;-68
2022/03/18 08:10:58;;;;;;;12.20;6.90;;;21.20;52.70;;;23.82;28.56;103570.16;5124717;29;20047;-68
2022/03/18 08:13:30;;;;;;;14.63;7.53;;;21.30;51.00;;;23.78;27.98;103563.81;5124432;28;20055;-72
2022/03/18 08:16:05;;;;;;;13.60;6.90;;;21.30;49.80;;;23.39;28.02;103569.03;5127275;28;20054;-72
2022/03/18 08:18:38;;;;;;;13.13;6.60;;;21.00;49.70;;;23.46;28.31;103565.66;5137930;28;20051;-73
2022/03/18 08:21:10;;;;;;;12.23;6.70;;;20.90;50.10;;;23.52;27.73;103564.94;5140814;28;20085;-72
2022/03/18 08:23:43;;;;;;;12.10;6.80;;;21.00;49.90;;;23.41;28.09;103562.03;5130777;28;20051;-74
2022/03/18 08:26:15;;;;;;;11.25;6.15;;;20.90;50.00;;;23.46;27.73;103568.34;5140947;28;20059;-75
2022/03/18 08:28:47;;;;;;;14.25;6.80;;;21.00;49.60;;;23.65;27.94;103561.72;5129981;28;20419;-75
2022/03/18 08:31:20;;;;;;;11.02;6.03;;;21.00;49.50;;;23.68;27.97;103566.25;5143988;28;20074;-74
2022/03/18 08:33:52;;;;;;;11.82;6.38;;;21.10;49.80;;;23.92;27.32;103561.47;5137140;28;20053;-72
2022/03/18 08:36:24;;;;;;;11.13;6.18;;;21.30;49.50;;;23.88;27.38;103564.97;5123527;28;20511;-72
2022/03/18 08:38:56;;;;;;;8.70;5.00;;;21.30;49.10;;;23.73;27.63;103572.56;5125882;28;20059;-71
2022/03/18 08:41:28;;;;;;;12.75;5.72;;;21.20;48.90;;;23.47;27.73;103571.88;5143950;28;20050;-71
2022/03/18 08:44:00;;;;;;;10.75;5.15;;;21.00;48.90;;;23.36;27.98;103571.63;5144392;28;20057;-72
2022/03/18 08:46:34;;;;;;;9.57;4.55;;;20.80;49.30;;;23.40;27.66;103573.50;5144369;28;20061;-72
2022/03/18 08:49:06;;;;;;;;;;;20.70;49.30;;;23.53;27.43;103566.72;5144120;28;20093;-71
2022/03/18 08:51:38;;;;;;;10.65;4.40;;;20.80;49.20;;;23.33;27.56;103578.63;5144189;28;20301;-73
2022/03/18 08:54:10;;;;;;;10.40;4.68;;;20.70;49.10;;;23.16;27.92;103580.88;5144232;28;20082;-71
2022/03/18 08:56:42;;;;;;;10.27;4.75;;;20.70;49.30;;;23.25;27.75;103575.78;5144056;28;20061;-73
2022/03/18 08:59:14;;;;;;;7.90;4.20;;;20.70;49.20;;;23.11;27.58;103577.19;5143864;28;20051;-74
2022/03/18 09:01:47;;;;;;;10.70;3.90;;;20.80;48.70;;;22.69;27.87;103580.41;5144276;28;20054;-75
2022/03/18 09:04:20;;;;;;;10.40;3.75;;;20.70;48.50;;;22.33;28.54;103572.28;5141226;28;20495;-73
2022/03/18 09:06:52;;;;;;;7.63;3.50;;;20.60;48.80;;;21.86;29.85;103576.97;5134391;28;20055;-76
2022/03/18 09:09:24;;;;;;;10.38;4.07;;;20.40;50.00;;;21.43;30.62;103582.63;5142017;28;20493;-77
2022/03/18 09:11:58;;;;;;;7.60;3.70;;;20.20;50.50;;;21.02;31.02;103590.00;5151868;28;20058;-76
2022/03/18 09:14:35;;;;;;;10.35;3.95;;;20.10;50.40;;;20.42;32.02;103578.91;5150174;28;20078;-75
2022/03/18 09:17:08;;;;;;;8.07;3.55;;;19.70;51.00;;;19.68;33.17;103589.22;5146809;28;20219;-72
2022/03/18 09:19:40;;;;;;;8.75;3.92;;;19.30;51.70;;;19.14;33.95;103586.00;5144534;28;20059;-74
2022/03/18 09:22:13;;;;;;;9.10;4.05;;;18.90;52.00;;;18.60;34.30;103590.59;5138357;28;20047;-72
2022/03/18 09:24:47;;;;;;;8.90;3.85;;;18.50;52.10;;;17.98;35.06;103595.53;5140987;28;20051;-72
2022/03/18 09:27:19;;;;;;;7.13;3.17;;;17.90;52.70;;;17.52;36.14;103593.22;5143906;28;20059;-72
2022/03/18 09:29:51;;;;;;;6.65;3.53;;;17.50;54.70;;;17.33;36.54;103601.94;5143683;28;20057;-72
2022/03/18 09:32:25;;;;;;;7.90;3.70;;;17.20;54.50;;;17.17;36.60;103597.59;5143930;28;20149;-73
2022/03/18 09:34:58;;;;;;;6.97;3.22;;;17.00;54.40;;;16.97;37.32;103606.19;5140474;28;20061;-72
2022/03/18 09:37:30;;;;;;;9.88;3.75;;;16.80;55.40;;;16.77;38.21;103603.41;5132602;28;20058;-72
2022/03/18 09:40:04;;;;;;;7.07;3.55;;;16.60;56.20;;;16.55;38.66;103613.56;5132936;28;20051;-72
2022/03/18 09:42:53;;;;;;;6.53;3.13;;;16.30;56.80;;;16.51;38.97;103611.59;5125436;28;20058;-72
2022/03/18 09:45:31;;;;;;;9.48;3.42;;;16.30;57.10;;;16.45;38.95;103608.63;5123385;28;20079;-72
2022/03/18 09:48:09;;;;;;;11.70;3.38;;;16.20;57.10;;;16.36;38.19;103613.34;5126183;28;20174;-72
2022/03/18 09:50:42;;;;;;;9.52;3.55;;;16.10;56.70;;;16.34;39.34;103618.53;5126088;28;20086;-73
2022/03/18 09:53:15;;;;;;;7.40;3.15;;;16.10;57.80;;;16.34;38.97;103623.81;5133194;28;20054;-73
2022/03/18 09:55:47;;;;;;;8.68;3.95;;;16.00;57.40;;;16.15;39.29;103628.84;5130714;28;20070;-72
2022/03/18 09:58:19;;;;;;;5.82;3.03;;;15.90;57.60;;;16.01;40.16;103621.09;5140731;28;20062;-73
2022/03/18 10:00:51;;;;;;;9.80;3.67;;;15.80;59.00;;;15.91;40.47;103620.47;5139666;28;20128;-73
2022/03/18 10:03:36;;;;;;;8.80;3.30;;;15.70;59.00;;;15.93;40.76;103626.75;5141498;28;20420;-72
2022/03/18 10:06:11;;;;;;;8.70;3.45;;;15.70;59.30;;;15.92;39.87;103625.84;5135841;28;20062;-72
2022/03/18 10:08:51;;;;;;;8.65;3.90;;;15.70;58.50;;;15.97;39.57;103624.38;5131033;28;20054;-73
2022/03/18 10:11:24;;;;;;;9.88;3.80;;;15.70;58.10;;;15.87;40.55;103624.66;5136347;28;20078;-72
2022/03/18 10:13:59;;;;;;;11.15;4.28;;;15.60;59.30;;;15.81;41.61;103624.28;5147321;28;20058;-72
2022/03/18 10:16:37;;;;;;;10.35;3.63;;;15.50;60.40;;;15.83;41.97;103624.38;5147406;28;20047;-72
2022/03/18 10:19:13;;;;;;;9.48;3.83;;;15.50;61.00;;;15.91;41.76;103621.41;5146527;28;20054;-73
2022/03/18 10:21:53;;;;;;;8.43;3.42;;;15.60;61.00;;;15.97;41.41;103621.75;5147185;28;20055;-72
2022/03/18 10:24:27;;;;;;;6.15;3.08;;;15.70;60.50;;;16.10;40.99;103619.78;5139520;28;20058;-73
2022/03/18 10:27:12;;;;;;;10.05;3.28;;;15.70;60.10;;;16.26;40.87;103611.94;5145419;28;20110;-73
2022/03/18 10:29:47;;;;;;;5.80;3.05;;;15.90;60.10;;;16.30;39.44;103613.94;5126711;28;20047;-70
2022/03/18 10:32:21;;;;;;;5.45;3.03;;;16.00;58.20;;;16.34;39.77;103615.00;5126790;29;20050;-71
2022/03/18 10:37:48;;;;;;;7.63;2.67;;;16.00;59.00;;;16.34;39.82;103594.84;5138738;28;20511;-73
2022/03/18 10:40:34;;;;;;;6.78;2.50;;;16.10;58.70;;;16.31;39.55;103604.31;5141960;28;20065;-72
2022/03/18 10:43:07;;;;;;;6.53;3.03;;;16.00;58.50;;;16.39;39.65;103603.00;5134501;28;20055;-72
2022/03/18 10:45:39;;;;;;;10.13;2.80;;;16.00;58.60;;;16.42;39.76;103601.44;5146284;28;20666;-72
2022/03/18 10:48:13;;;;;;;8.50;2.42;;;16.10;58.60;;;16.39;39.17;103598.66;5125827;28;20050;-68
2022/03/18 10:50:47;;;;;;;5.13;2.20;;;16.10;58.00;;;16.40;39.08;103594.28;5126775;28;20051;-69
2022/03/18 10:53:20;;;;;;;4.35;2.33;;;16.10;57.90;;;16.58;39.56;103583.88;5142096;28;20050;-69
2022/03/18 10:55:52;;;;;;;6.40;1.98;;;16.20;58.80;;;16.77;39.29;103597.25;5137046;28;20055;-68
2022/03/18 10:58:24;;;;;;;4.70;2.53;;;16.40;58.40;;;16.87;39.11;103588.97;5126933;29;20048;-69